Ward, Alabama
Current Conditions -  °F | °C
As of 6:15 AM on Monday 26 Jan 2015 (Local Time) from KDYA Reporting Station
Overcast Overcast  
Wind Chill:   Ceiling: 2800
Heat Index:   Visibility: 10mi
Dew Point:   Wind: 7mph
Humidity: 66%   Direction: 270°W
Pressure: 30"   Gusts: NA
Location:  32.36°N, 88.28°W
Report Text: KDYA 261215Z AUTO 27006KT 10SM OVC028 08/02 A3000 RMK AO2 T00750016
Loading
Personal Weather Stations






























Interactive Weather Map New forecast layout! Learn more

10-Day Weather Forecast

Advertisements
Track Severe Weather on mobile